Time;durP1;ratioP1;P1;durP2;ratioP2;P2;SDS_P1;SDS_P2;PMS_P1;PMS_P2;Temp;Humidity;BMP_temperature;BMP_pressure;BME280_temperature;BME280_humidity;BME280_pressure;Samples;Min_cycle;Max_cycle;Signal;HPM_P1;HPM_P2
2023/12/23 00:02:21;;;;;;;10.87;1.20;;;;;;;;;;5016322;28;20233;-75
2023/12/23 00:04:46;;;;;;;13.77;1.47;;;;;;;;;;4992964;28;20194;-76
2023/12/23 00:07:14;;;;;;;9.93;1.67;;;;;;;;;;5018755;28;20732;-76
2023/12/23 00:09:40;;;;;;;9.07;1.20;;;;;;;;;;5009870;28;20193;-76
2023/12/23 00:12:08;;;;;;;10.07;1.63;;;;;;;;;;5021555;28;20656;-75
2023/12/23 00:14:33;;;;;;;11.23;1.73;;;;;;;;;;5022107;28;20209;-76
2023/12/23 00:16:59;;;;;;;11.10;1.40;;;;;;;;;;5014428;28;20185;-76
2023/12/23 00:19:24;;;;;;;8.23;1.57;;;;;;;;;;5027624;28;20344;-76
2023/12/23 00:21:49;;;;;;;14.33;1.60;;;;;;;;;;5010585;28;20555;-76
2023/12/23 00:24:15;;;;;;;13.37;1.57;;;;;;;;;;5027237;28;20622;-76
2023/12/23 00:26:40;;;;;;;8.07;1.67;;;;;;;;;;5027721;28;20306;-76
2023/12/23 00:29:06;;;;;;;12.23;2.00;;;;;;;;;;5006820;28;20205;-76
2023/12/23 00:31:31;;;;;;;13.97;1.70;;;;;;;;;;5023813;28;20190;-76
2023/12/23 00:33:56;;;;;;;17.03;2.00;;;;;;;;;;5025742;28;20189;-77
2023/12/23 00:36:22;;;;;;;15.03;1.33;;;;;;;;;;5009503;28;20698;-76
2023/12/23 00:38:48;;;;;;;9.47;1.30;;;;;;;;;;5025755;28;20281;-76
2023/12/23 00:41:14;;;;;;;11.63;1.60;;;;;;;;;;5001732;28;20275;-76
2023/12/23 00:43:39;;;;;;;8.97;1.77;;;;;;;;;;5008580;28;20194;-76
2023/12/23 00:46:07;;;;;;;10.13;1.40;;;;;;;;;;5027294;28;20185;-75
2023/12/23 00:48:33;;;;;;;15.50;1.97;;;;;;;;;;5024735;28;20187;-75
2023/12/23 00:50:58;;;;;;;10.60;1.73;;;;;;;;;;5015063;28;20612;-76
2023/12/23 00:53:25;;;;;;;12.17;1.70;;;;;;;;;;5009707;28;20289;-76
2023/12/23 00:55:54;;;;;;;11.00;2.43;;;;;;;;;;5027496;28;20705;-75
2023/12/23 00:58:20;;;;;;;14.37;1.30;;;;;;;;;;5024141;28;20194;-75
2023/12/23 01:00:46;;;;;;;13.57;1.50;;;;;;;;;;5026447;28;20256;-76
2023/12/23 01:03:11;;;;;;;8.83;1.43;;;;;;;;;;5027360;28;20240;-76
2023/12/23 01:05:37;;;;;;;8.87;1.70;;;;;;;;;;5025880;28;20214;-75
2023/12/23 01:08:02;;;;;;;10.80;1.27;;;;;;;;;;5009314;28;20245;-75
2023/12/23 01:10:28;;;;;;;12.50;1.47;;;;;;;;;;5009401;28;20839;-75
2023/12/23 01:12:54;;;;;;;8.63;1.10;;;;;;;;;;5009773;28;20190;-76
2023/12/23 01:15:19;;;;;;;11.03;1.57;;;;;;;;;;5024789;28;20186;-75
2023/12/23 01:17:45;;;;;;;6.60;1.40;;;;;;;;;;4993082;28;20680;-75
2023/12/23 01:20:10;;;;;;;13.47;1.17;;;;;;;;;;5002876;28;20333;-75
2023/12/23 01:22:36;;;;;;;14.23;1.43;;;;;;;;;;4986410;28;20469;-75
2023/12/23 01:25:02;;;;;;;11.17;1.17;;;;;;;;;;4988707;28;20202;-76
2023/12/23 01:27:27;;;;;;;10.67;1.30;;;;;;;;;;5003853;28;20374;-75
2023/12/23 01:29:53;;;;;;;13.10;1.57;;;;;;;;;;4986370;28;20663;-75
2023/12/23 01:32:18;;;;;;;8.80;1.20;;;;;;;;;;4988340;28;20541;-76
2023/12/23 01:34:44;;;;;;;7.67;1.17;;;;;;;;;;4987068;28;20636;-74
2023/12/23 01:37:09;;;;;;;16.47;1.70;;;;;;;;;;4990372;28;20531;-75
2023/12/23 01:39:35;;;;;;;6.40;1.40;;;;;;;;;;4989916;28;20309;-76
2023/12/23 01:42:00;;;;;;;11.53;2.33;;;;;;;;;;5003859;28;20666;-75
2023/12/23 01:44:26;;;;;;;8.20;1.20;;;;;;;;;;4988443;28;24887;-75
2023/12/23 01:46:54;;;;;;;6.00;0.83;;;;;;;;;;4991484;28;20195;-75
2023/12/23 01:49:20;;;;;;;8.18;1.08;;;;;;;;;;4990197;28;20560;-76
2023/12/23 01:51:47;;;;;;;8.10;1.03;;;;;;;;;;4989976;28;20748;-75
2023/12/23 01:54:13;;;;;;;10.23;1.40;;;;;;;;;;4990911;28;20308;-75
2023/12/23 01:56:38;;;;;;;10.37;2.00;;;;;;;;;;4987321;28;20203;-75
2023/12/23 01:59:04;;;;;;;8.90;1.27;;;;;;;;;;4988815;28;20234;-75
2023/12/23 02:01:31;;;;;;;12.27;1.50;;;;;;;;;;4989617;28;20261;-75
2023/12/23 02:03:57;;;;;;;6.47;0.97;;;;;;;;;;4993788;28;20561;-75
2023/12/23 02:06:22;;;;;;;8.70;1.30;;;;;;;;;;4992106;28;20191;-74
2023/12/23 02:08:48;;;;;;;7.47;1.23;;;;;;;;;;4988642;28;20191;-74
2023/12/23 02:11:21;;;;;;;11.50;0.80;;;;;;;;;;4990127;28;20287;-74
2023/12/23 02:14:00;;;;;;;4.07;0.60;;;;;;;;;;5003279;28;20191;-78
2023/12/23 02:16:26;;;;;;;6.70;0.77;;;;;;;;;;4989089;28;20639;-75
2023/12/23 02:18:52;;;;;;;10.43;0.60;;;;;;;;;;5001726;28;20226;-74
2023/12/23 02:21:17;;;;;;;4.40;0.60;;;;;;;;;;5012393;28;20588;-75
2023/12/23 02:23:43;;;;;;;5.63;1.10;;;;;;;;;;4992228;28;20334;-77
2023/12/23 02:26:10;;;;;;;7.37;0.90;;;;;;;;;;5006051;28;20199;-76
2023/12/23 02:28:36;;;;;;;5.00;0.60;;;;;;;;;;5025017;28;20627;-76
2023/12/23 02:31:02;;;;;;;5.50;0.50;;;;;;;;;;5010202;28;20209;-76
2023/12/23 02:33:28;;;;;;;4.93;0.63;;;;;;;;;;5012527;28;20190;-76
2023/12/23 02:35:53;;;;;;;6.17;0.60;;;;;;;;;;5011803;28;20186;-75
2023/12/23 02:38:21;;;;;;;3.87;0.50;;;;;;;;;;5012491;28;20201;-75
2023/12/23 02:40:47;;;;;;;4.10;0.63;;;;;;;;;;5008253;28;20222;-76
2023/12/23 02:43:12;;;;;;;5.53;0.70;;;;;;;;;;5009844;28;20186;-76
2023/12/23 02:45:38;;;;;;;5.07;0.70;;;;;;;;;;5007533;28;20195;-76
2023/12/23 02:48:05;;;;;;;2.90;0.50;;;;;;;;;;5006771;28;20195;-76
2023/12/23 02:50:31;;;;;;;4.63;0.60;;;;;;;;;;5008240;28;20207;-76
2023/12/23 02:52:57;;;;;;;4.93;0.70;;;;;;;;;;5011661;28;20556;-76
2023/12/23 02:55:23;;;;;;;6.67;0.70;;;;;;;;;;5009056;28;20194;-77
2023/12/23 02:57:48;;;;;;;7.57;0.50;;;;;;;;;;5005641;28;20611;-75
2023/12/23 03:00:14;;;;;;;4.23;0.70;;;;;;;;;;5007835;28;20211;-75
2023/12/23 03:02:39;;;;;;;6.10;0.63;;;;;;;;;;5006953;28;20187;-76
2023/12/23 03:05:05;;;;;;;8.30;0.63;;;;;;;;;;5007519;28;20198;-76
2023/12/23 03:07:31;;;;;;;4.03;0.70;;;;;;;;;;5014632;28;20528;-76
2023/12/23 03:09:56;;;;;;;5.70;0.83;;;;;;;;;;5005152;28;20714;-76
2023/12/23 03:12:21;;;;;;;7.97;0.90;;;;;;;;;;5006837;28;20297;-76
2023/12/23 03:14:47;;;;;;;4.93;0.57;;;;;;;;;;5008900;28;20267;-76
2023/12/23 03:17:12;;;;;;;5.27;0.53;;;;;;;;;;4990122;28;20191;-76
2023/12/23 03:19:38;;;;;;;5.97;1.13;;;;;;;;;;5021390;28;20234;-76
2023/12/23 03:22:03;;;;;;;11.33;0.90;;;;;;;;;;5030598;28;20194;-78
2023/12/23 03:24:29;;;;;;;8.87;0.50;;;;;;;;;;5032251;28;20196;-78
2023/12/23 03:26:54;;;;;;;7.90;0.80;;;;;;;;;;5030909;28;20303;-78
2023/12/23 03:29:19;;;;;;;6.37;0.60;;;;;;;;;;5029860;28;20680;-78
2023/12/23 03:31:45;;;;;;;5.00;0.63;;;;;;;;;;5008895;28;20195;-78
2023/12/23 03:34:10;;;;;;;6.33;0.43;;;;;;;;;;5027199;28;20668;-79
2023/12/23 03:36:36;;;;;;;4.20;0.63;;;;;;;;;;4996689;28;20340;-79
2023/12/23 03:39:01;;;;;;;5.00;0.77;;;;;;;;;;5030944;28;20222;-79
2023/12/23 03:41:27;;;;;;;5.30;0.77;;;;;;;;;;4996397;28;20241;-80
2023/12/23 03:43:52;;;;;;;8.87;0.73;;;;;;;;;;5012847;28;20375;-78
2023/12/23 03:46:19;;;;;;;8.37;0.90;;;;;;;;;;5024348;28;20205;-78
2023/12/23 03:48:46;;;;;;;6.80;0.60;;;;;;;;;;5028711;28;20266;-79
2023/12/23 03:51:12;;;;;;;5.97;0.60;;;;;;;;;;5029975;28;20319;-79
2023/12/23 03:53:37;;;;;;;3.70;0.60;;;;;;;;;;5002524;28;20704;-79
2023/12/23 03:56:03;;;;;;;4.13;0.67;;;;;;;;;;5012628;28;20272;-79
2023/12/23 03:58:28;;;;;;;5.90;0.60;;;;;;;;;;5012843;28;20178;-80
2023/12/23 04:00:54;;;;;;;10.10;0.90;;;;;;;;;;4995558;28;20263;-79
2023/12/23 04:03:19;;;;;;;9.17;0.90;;;;;;;;;;5008664;28;20195;-80
2023/12/23 04:05:45;;;;;;;6.13;0.67;;;;;;;;;;5028957;28;20224;-78
2023/12/23 04:08:11;;;;;;;11.50;0.87;;;;;;;;;;5010325;28;20186;-77
2023/12/23 04:10:36;;;;;;;6.77;1.50;;;;;;;;;;5029304;28;20190;-78
2023/12/23 04:13:02;;;;;;;8.30;1.17;;;;;;;;;;5010253;28;20279;-77
2023/12/23 04:15:27;;;;;;;4.53;0.70;;;;;;;;;;5011857;28;20608;-78
2023/12/23 04:17:53;;;;;;;8.80;1.17;;;;;;;;;;5012345;28;20216;-77
2023/12/23 04:20:19;;;;;;;10.17;1.13;;;;;;;;;;4971701;28;20234;-78
2023/12/23 04:22:47;;;;;;;12.63;1.60;;;;;;;;;;4957222;28;20187;-78
2023/12/23 04:25:14;;;;;;;4.93;1.20;;;;;;;;;;4989579;28;20528;-77
2023/12/23 04:27:39;;;;;;;8.50;1.20;;;;;;;;;;4983517;28;20278;-78
2023/12/23 04:30:05;;;;;;;9.13;1.30;;;;;;;;;;4989058;28;20203;-79
2023/12/23 04:32:31;;;;;;;6.77;1.33;;;;;;;;;;4986861;28;20674;-78
2023/12/23 04:34:56;;;;;;;4.07;1.10;;;;;;;;;;4999900;28;20202;-79
2023/12/23 04:37:22;;;;;;;6.03;1.53;;;;;;;;;;4993768;28;20214;-79
2023/12/23 04:39:47;;;;;;;7.63;1.53;;;;;;;;;;4979050;28;20238;-79
2023/12/23 04:42:13;;;;;;;5.33;1.23;;;;;;;;;;5001914;28;20274;-78
2023/12/23 04:44:38;;;;;;;5.17;1.43;;;;;;;;;;4975777;28;20188;-78
2023/12/23 04:47:04;;;;;;;5.00;1.10;;;;;;;;;;4993683;28;20191;-79
2023/12/23 04:49:31;;;;;;;7.83;1.53;;;;;;;;;;5003339;28;20192;-80
2023/12/23 04:51:56;;;;;;;6.53;1.60;;;;;;;;;;4997298;28;20639;-78
2023/12/23 04:54:21;;;;;;;4.10;1.43;;;;;;;;;;4996474;28;20187;-78
2023/12/23 04:56:47;;;;;;;6.33;1.70;;;;;;;;;;4991828;28;20207;-80
2023/12/23 04:59:12;;;;;;;5.67;1.90;;;;;;;;;;4998100;28;20210;-79
2023/12/23 05:01:38;;;;;;;6.17;1.70;;;;;;;;;;4997981;28;20203;-77
2023/12/23 05:04:04;;;;;;;4.97;1.95;;;;;;;;;;5016453;28;20348;-79
2023/12/23 05:06:30;;;;;;;7.20;2.30;;;;;;;;;;4991315;28;20719;-80
2023/12/23 05:08:55;;;;;;;9.43;2.35;;;;;;;;;;5002088;28;20286;-79
2023/12/23 05:11:21;;;;;;;9.07;2.20;;;;;;;;;;4986009;28;20187;-78
2023/12/23 05:13:46;;;;;;;7.10;1.88;;;;;;;;;;5000345;28;20328;-80
2023/12/23 05:16:12;;;;;;;5.38;1.77;;;;;;;;;;4985427;28;20625;-78
2023/12/23 05:18:37;;;;;;;11.65;1.90;;;;;;;;;;5007613;28;20324;-79
2023/12/23 05:21:03;;;;;;;4.85;1.77;;;;;;;;;;5016469;28;20198;-77
2023/12/23 05:23:28;;;;;;;3.83;1.60;;;;;;;;;;5014515;28;20182;-78
2023/12/23 05:25:54;;;;;;;3.40;1.33;;;;;;;;;;5035298;28;20178;-80
2023/12/23 05:28:20;;;;;;;4.55;1.70;;;;;;;;;;5000198;28;20190;-80
2023/12/23 05:30:47;;;;;;;12.55;2.50;;;;;;;;;;5016082;28;20186;-78
2023/12/23 05:33:13;;;;;;;10.85;2.38;;;;;;;;;;5019858;28;20178;-78
2023/12/23 05:35:38;;;;;;;7.63;2.33;;;;;;;;;;4996914;28;20248;-80
2023/12/23 05:38:04;;;;;;;9.23;2.10;;;;;;;;;;5028405;28;20190;-79
2023/12/23 05:40:29;;;;;;;11.85;2.22;;;;;;;;;;5028665;28;20202;-79
2023/12/23 05:42:55;;;;;;;11.50;2.45;;;;;;;;;;5027889;28;20202;-78
2023/12/23 05:45:20;;;;;;;8.98;2.00;;;;;;;;;;4994303;28;20191;-77
2023/12/23 05:47:48;;;;;;;11.25;2.58;;;;;;;;;;5011288;28;20186;-78
2023/12/23 05:50:13;;;;;;;12.00;2.58;;;;;;;;;;5014741;28;20316;-78
2023/12/23 05:52:39;;;;;;;11.23;2.75;;;;;;;;;;5015060;28;20678;-79
2023/12/23 05:55:04;;;;;;;13.60;2.80;;;;;;;;;;5007413;28;20190;-79
2023/12/23 05:57:30;;;;;;;11.65;2.40;;;;;;;;;;5017548;28;20193;-78
2023/12/23 05:59:55;;;;;;;6.82;1.98;;;;;;;;;;5008600;28;20203;-78
2023/12/23 06:02:21;;;;;;;12.75;2.35;;;;;;;;;;5008338;28;20189;-77
2023/12/23 06:04:46;;;;;;;13.93;2.83;;;;;;;;;;5004961;28;20282;-77
2023/12/23 06:07:12;;;;;;;11.37;2.13;;;;;;;;;;5007367;28;20190;-77
2023/12/23 06:09:38;;;;;;;15.57;2.63;;;;;;;;;;5013916;28;20183;-77
2023/12/23 06:12:03;;;;;;;10.87;2.20;;;;;;;;;;5029406;28;20656;-78
2023/12/23 06:14:29;;;;;;;16.40;2.78;;;;;;;;;;5015822;28;20339;-77
2023/12/23 06:16:54;;;;;;;4.82;1.85;;;;;;;;;;5031912;28;20515;-78
2023/12/23 06:19:20;;;;;;;12.52;2.22;;;;;;;;;;5012349;28;20238;-77
2023/12/23 06:21:46;;;;;;;12.80;2.33;;;;;;;;;;5030934;28;20226;-78
2023/12/23 06:24:15;;;;;;;16.90;2.78;;;;;;;;;;5011180;28;20595;-78
2023/12/23 06:26:41;;;;;;;13.40;2.08;;;;;;;;;;5028132;28;20214;-76
2023/12/23 06:29:06;;;;;;;10.75;2.30;;;;;;;;;;5031165;28;20694;-78
2023/12/23 06:31:33;;;;;;;18.60;3.90;;;;;;;;;;5032458;28;20186;-78
2023/12/23 06:33:58;;;;;;;11.50;2.58;;;;;;;;;;4997576;28;20202;-78
2023/12/23 06:36:24;;;;;;;7.68;2.63;;;;;;;;;;5011183;28;20199;-78
2023/12/23 06:38:49;;;;;;;11.35;2.42;;;;;;;;;;5012971;28;20186;-78
2023/12/23 06:41:15;;;;;;;11.38;2.47;;;;;;;;;;5013092;28;20248;-77
2023/12/23 06:43:40;;;;;;;11.60;2.15;;;;;;;;;;5009432;28;20268;-77
2023/12/23 06:46:10;;;;;;;10.57;2.22;;;;;;;;;;5013237;28;20190;-76
2023/12/23 06:48:35;;;;;;;12.55;2.55;;;;;;;;;;5013136;28;20583;-77
2023/12/23 06:51:01;;;;;;;15.20;2.80;;;;;;;;;;5030492;28;20187;-78
2023/12/23 06:53:26;;;;;;;7.88;2.55;;;;;;;;;;5029824;28;20667;-77
2023/12/23 06:55:52;;;;;;;11.88;2.78;;;;;;;;;;5009912;28;20264;-77
2023/12/23 06:58:17;;;;;;;9.77;2.40;;;;;;;;;;5029447;28;20193;-76
2023/12/23 07:00:43;;;;;;;11.40;2.92;;;;;;;;;;5031383;28;20245;-76
2023/12/23 07:03:08;;;;;;;12.02;2.72;;;;;;;;;;5029156;28;20186;-77
2023/12/23 07:05:33;;;;;;;13.73;2.97;;;;;;;;;;5005753;28;20313;-76
2023/12/23 07:07:59;;;;;;;10.02;2.42;;;;;;;;;;5005613;28;20193;-76
2023/12/23 07:10:24;;;;;;;12.27;2.55;;;;;;;;;;5027510;28;20244;-76
2023/12/23 07:12:50;;;;;;;11.23;2.47;;;;;;;;;;5032924;28;20190;-77
2023/12/23 07:15:15;;;;;;;12.60;2.80;;;;;;;;;;5011648;28;20704;-79
2023/12/23 07:17:41;;;;;;;17.23;2.85;;;;;;;;;;5010963;28;20588;-78
2023/12/23 07:20:08;;;;;;;14.13;3.13;;;;;;;;;;4993560;28;20217;-79
2023/12/23 07:22:33;;;;;;;11.13;3.05;;;;;;;;;;5009967;28;20230;-77
2023/12/23 07:24:59;;;;;;;9.95;2.90;;;;;;;;;;5027953;28;20209;-79
2023/12/23 07:27:24;;;;;;;14.10;2.90;;;;;;;;;;5019417;28;20194;-78
2023/12/23 07:29:50;;;;;;;15.25;2.83;;;;;;;;;;5040353;28;20656;-79
2023/12/23 07:32:15;;;;;;;13.45;2.70;;;;;;;;;;5030899;28;20191;-79
2023/12/23 07:34:41;;;;;;;7.53;2.40;;;;;;;;;;5020257;28;20186;-78
2023/12/23 07:37:08;;;;;;;17.80;2.97;;;;;;;;;;5013703;28;20209;-78
2023/12/23 07:39:33;;;;;;;12.95;3.10;;;;;;;;;;5030116;28;20186;-80
2023/12/23 07:41:59;;;;;;;17.88;3.67;;;;;;;;;;5012937;28;20384;-78
2023/12/23 07:44:25;;;;;;;17.05;3.22;;;;;;;;;;5014075;28;20200;-77
2023/12/23 07:46:50;;;;;;;12.45;2.90;;;;;;;;;;5033666;28;20463;-76
2023/12/23 07:49:16;;;;;;;15.05;3.63;;;;;;;;;;5012400;28;20216;-78
2023/12/23 07:51:41;;;;;;;19.02;3.28;;;;;;;;;;5008999;28;20572;-77
2023/12/23 07:54:07;;;;;;;12.73;2.95;;;;;;;;;;5015337;28;20194;-78
2023/12/23 07:56:32;;;;;;;11.15;3.40;;;;;;;;;;5029385;28;20197;-78
2023/12/23 07:58:58;;;;;;;15.43;3.28;;;;;;;;;;4994723;28;20190;-78
2023/12/23 08:01:23;;;;;;;11.35;2.83;;;;;;;;;;5025989;28;20272;-79
2023/12/23 08:03:49;;;;;;;16.50;3.17;;;;;;;;;;5006946;28;20264;-77
2023/12/23 08:06:16;;;;;;;16.67;3.10;;;;;;;;;;5002532;28;20596;-78
2023/12/23 08:08:42;;;;;;;27.02;3.97;;;;;;;;;;4994788;28;20210;-77
2023/12/23 08:11:08;;;;;;;18.38;3.63;;;;;;;;;;5013448;28;20225;-78
2023/12/23 08:13:34;;;;;;;19.25;4.40;;;;;;;;;;5023468;28;20186;-77
2023/12/23 08:15:59;;;;;;;18.63;4.22;;;;;;;;;;5011784;28;20261;-79
2023/12/23 08:18:25;;;;;;;10.52;3.38;;;;;;;;;;5025779;28;20320;-78
2023/12/23 08:20:50;;;;;;;14.95;3.70;;;;;;;;;;5010848;28;20490;-77
2023/12/23 08:23:15;;;;;;;17.30;3.47;;;;;;;;;;5005233;28;20213;-77
2023/12/23 08:25:41;;;;;;;16.77;3.38;;;;;;;;;;5028928;28;20205;-77
2023/12/23 08:28:07;;;;;;;24.45;3.95;;;;;;;;;;5025940;28;20508;-78
2023/12/23 08:30:32;;;;;;;15.85;3.92;;;;;;;;;;5025259;28;20178;-76
2023/12/23 08:32:58;;;;;;;16.92;3.22;;;;;;;;;;5009722;28;20193;-80
2023/12/23 08:35:24;;;;;;;20.95;3.13;;;;;;;;;;5006860;28;20191;-78
2023/12/23 08:37:49;;;;;;;20.15;3.15;;;;;;;;;;5010559;28;20399;-78
2023/12/23 08:40:15;;;;;;;19.90;3.40;;;;;;;;;;4994920;28;20220;-79
2023/12/23 08:42:40;;;;;;;17.88;3.70;;;;;;;;;;5027942;28;20200;-78
2023/12/23 08:45:07;;;;;;;24.67;3.70;;;;;;;;;;5010936;28;20186;-79
2023/12/23 08:47:32;;;;;;;15.68;3.50;;;;;;;;;;5028312;28;20197;-80
2023/12/23 08:49:57;;;;;;;19.17;3.40;;;;;;;;;;5008723;28;20600;-78
2023/12/23 08:52:23;;;;;;;20.92;3.30;;;;;;;;;;5023947;28;20245;-79
2023/12/23 08:54:48;;;;;;;13.25;2.90;;;;;;;;;;5006677;28;20183;-78
2023/12/23 08:57:14;;;;;;;10.68;2.40;;;;;;;;;;5012989;28;20657;-79
2023/12/23 08:59:39;;;;;;;14.57;2.85;;;;;;;;;;5006779;28;20615;-79
2023/12/23 09:02:05;;;;;;;14.18;3.08;;;;;;;;;;5022619;28;20182;-80
2023/12/23 09:04:31;;;;;;;19.65;3.40;;;;;;;;;;5010744;28;20186;-79
2023/12/23 09:06:57;;;;;;;16.15;3.15;;;;;;;;;;5030282;28;20189;-79
2023/12/23 09:09:23;;;;;;;14.75;3.47;;;;;;;;;;4990586;28;20321;-80
2023/12/23 09:11:49;;;;;;;19.95;3.10;;;;;;;;;;5015261;28;20273;-79
2023/12/23 09:14:15;;;;;;;20.65;3.28;;;;;;;;;;5027694;28;20209;-79
2023/12/23 09:16:40;;;;;;;23.42;3.45;;;;;;;;;;5027796;28;20190;-78
2023/12/23 09:19:06;;;;;;;18.25;3.17;;;;;;;;;;5008033;28;20613;-78
2023/12/23 09:21:32;;;;;;;19.58;2.78;;;;;;;;;;4992899;28;20207;-79
2023/12/23 09:23:57;;;;;;;19.10;2.88;;;;;;;;;;5021701;28;20189;-79
2023/12/23 09:26:25;;;;;;;30.05;2.90;;;;;;;;;;5008105;28;20202;-78
2023/12/23 09:28:54;;;;;;;20.38;2.80;;;;;;;;;;5004954;28;20614;-79
2023/12/23 09:31:19;;;;;;;14.27;2.75;;;;;;;;;;5007235;28;20190;-78
2023/12/23 09:33:45;;;;;;;16.27;2.78;;;;;;;;;;4994670;28;20728;-78
2023/12/23 09:36:10;;;;;;;14.82;3.28;;;;;;;;;;5002181;28;20737;-78
2023/12/23 09:38:36;;;;;;;13.98;2.75;;;;;;;;;;4999836;28;20209;-78
2023/12/23 09:41:03;;;;;;;19.77;3.85;;;;;;;;;;5009976;28;20346;-78
2023/12/23 09:43:29;;;;;;;14.82;2.58;;;;;;;;;;5008333;28;20282;-76
2023/12/23 09:45:56;;;;;;;17.63;2.67;;;;;;;;;;4989153;28;20714;-78
2023/12/23 09:48:22;;;;;;;16.67;2.90;;;;;;;;;;5015745;28;20273;-78
2023/12/23 09:50:49;;;;;;;13.23;2.83;;;;;;;;;;4997755;28;20261;-77
2023/12/23 09:53:16;;;;;;;16.58;2.70;;;;;;;;;;5001401;28;20781;-79
2023/12/23 09:55:41;;;;;;;14.60;2.85;;;;;;;;;;5004549;28;20229;-79
2023/12/23 09:58:07;;;;;;;15.73;2.92;;;;;;;;;;5005557;28;20214;-79
2023/12/23 10:00:33;;;;;;;20.33;2.70;;;;;;;;;;5018771;28;20239;-78
2023/12/23 10:02:59;;;;;;;19.00;3.08;;;;;;;;;;5004332;28;20581;-78
2023/12/23 10:05:29;;;;;;;19.05;3.50;;;;;;;;;;5009543;28;20249;-78
2023/12/23 10:07:58;;;;;;;15.43;3.47;;;;;;;;;;5001003;28;20187;-78
2023/12/23 10:10:25;;;;;;;20.75;2.83;;;;;;;;;;5011246;28;20214;-78
2023/12/23 10:12:51;;;;;;;20.23;3.22;;;;;;;;;;5013764;28;20265;-78
2023/12/23 10:15:16;;;;;;;17.92;2.90;;;;;;;;;;5013036;28;20237;-77
2023/12/23 10:17:42;;;;;;;21.20;3.30;;;;;;;;;;4983453;28;20671;-78
2023/12/23 10:20:10;;;;;;;19.25;2.97;;;;;;;;;;5021513;28;20272;-77
2023/12/23 10:22:35;;;;;;;17.02;3.10;;;;;;;;;;5017358;28;20235;-77
2023/12/23 10:25:01;;;;;;;17.23;2.42;;;;;;;;;;5029341;28;20671;-75
2023/12/23 10:27:31;;;;;;;20.52;3.17;;;;;;;;;;5014160;28;20285;-76
2023/12/23 10:29:59;;;;;;;20.83;3.63;;;;;;;;;;5028222;28;20427;-75
2023/12/23 10:32:27;;;;;;;15.73;3.63;;;;;;;;;;5026265;28;20194;-76
2023/12/23 10:35:00;;;;;;;23.98;2.88;;;;;;;;;;5030171;28;20229;-80
2023/12/23 10:37:26;;;;;;;16.23;2.70;;;;;;;;;;5025907;28;20623;-74
2023/12/23 10:40:02;;;;;;;13.27;2.50;;;;;;;;;;5027612;28;20229;-76
2023/12/23 10:42:30;;;;;;;17.27;3.22;;;;;;;;;;5004509;28;20247;-76
2023/12/23 10:44:57;;;;;;;24.08;3.53;;;;;;;;;;5024708;28;20501;-77
2023/12/23 10:47:23;;;;;;;16.58;2.78;;;;;;;;;;5024309;28;20208;-77
2023/12/23 10:49:49;;;;;;;16.65;2.72;;;;;;;;;;5006283;28;20221;-75
2023/12/23 10:52:16;;;;;;;12.65;2.67;;;;;;;;;;5008754;28;20183;-76
2023/12/23 10:54:42;;;;;;;18.40;2.97;;;;;;;;;;5010077;28;20202;-78
2023/12/23 10:57:09;;;;;;;21.48;2.92;;;;;;;;;;5008379;28;20194;-76
2023/12/23 10:59:35;;;;;;;15.10;2.38;;;;;;;;;;5020431;28;20264;-77
2023/12/23 11:02:10;;;;;;;14.63;2.75;;;;;;;;;;5026983;28;20222;-76
2023/12/23 11:04:36;;;;;;;15.55;3.00;;;;;;;;;;5014982;28;20190;-75
2023/12/23 11:07:03;;;;;;;12.85;2.45;;;;;;;;;;5013440;28;20196;-77
2023/12/23 11:09:31;;;;;;;14.65;2.63;;;;;;;;;;5012292;28;20178;-78
2023/12/23 11:11:57;;;;;;;17.67;2.70;;;;;;;;;;5012109;28;20187;-77
2023/12/23 11:14:22;;;;;;;14.00;2.47;;;;;;;;;;5029177;28;20550;-75
2023/12/23 11:16:50;;;;;;;14.57;2.55;;;;;;;;;;5030511;28;20244;-78
2023/12/23 11:19:15;;;;;;;19.52;2.53;;;;;;;;;;5011909;28;20238;-79
2023/12/23 11:21:42;;;;;;;16.70;3.42;;;;;;;;;;4333311;28;10000718;-77
2023/12/23 11:24:33;;;;;;;15.68;2.95;;;;;;;;;;5031207;28;20186;-79
2023/12/23 11:26:58;;;;;;;15.40;2.90;;;;;;;;;;5025670;28;20541;-79
2023/12/23 11:29:24;;;;;;;17.20;2.63;;;;;;;;;;5028786;28;20186;-80
2023/12/23 11:31:50;;;;;;;13.48;2.13;;;;;;;;;;5026227;28;20197;-79
2023/12/23 11:34:17;;;;;;;23.50;3.05;;;;;;;;;;5024598;28;20293;-81
2023/12/23 11:36:46;;;;;;;12.23;2.35;;;;;;;;;;5032085;28;20251;-79
2023/12/23 11:39:13;;;;;;;16.45;2.75;;;;;;;;;;5011371;28;20190;-78
2023/12/23 11:41:43;;;;;;;17.90;3.33;;;;;;;;;;5028186;28;20233;-79
2023/12/23 11:44:12;;;;;;;16.85;2.70;;;;;;;;;;5012390;28;20201;-79
2023/12/23 11:46:41;;;;;;;11.18;1.85;;;;;;;;;;4988820;28;20851;-77
2023/12/23 11:49:10;;;;;;;12.98;2.88;;;;;;;;;;5024144;28;20213;-79
2023/12/23 11:51:39;;;;;;;12.68;2.25;;;;;;;;;;5010313;28;20183;-78
2023/12/23 11:54:05;;;;;;;15.98;2.35;;;;;;;;;;5015185;28;20194;-80
2023/12/23 11:56:30;;;;;;;11.50;2.15;;;;;;;;;;5023210;28;20213;-81
2023/12/23 11:58:58;;;;;;;12.88;2.33;;;;;;;;;;4982925;28;20213;-79
2023/12/23 12:01:23;;;;;;;21.23;3.35;;;;;;;;;;5030214;28;20707;-77
2023/12/23 12:03:49;;;;;;;22.80;3.30;;;;;;;;;;5029561;28;20186;-77
2023/12/23 12:06:15;;;;;;;16.85;2.65;;;;;;;;;;5030929;28;20216;-77
2023/12/23 12:08:40;;;;;;;14.65;2.10;;;;;;;;;;5001154;28;20281;-79
2023/12/23 12:11:06;;;;;;;15.18;2.30;;;;;;;;;;5025164;28;20190;-77
2023/12/23 12:13:35;;;;;;;13.90;2.35;;;;;;;;;;5010516;28;20197;-78
2023/12/23 12:16:01;;;;;;;15.60;2.70;;;;;;;;;;4994687;28;20229;-78
2023/12/23 12:18:26;;;;;;;17.15;2.20;;;;;;;;;;5004685;28;20632;-78
2023/12/23 12:20:52;;;;;;;13.80;2.05;;;;;;;;;;5023729;28;20221;-78
2023/12/23 12:23:17;;;;;;;13.55;2.50;;;;;;;;;;5013169;28;20198;-79
2023/12/23 12:25:49;;;;;;;12.77;2.75;;;;;;;;;;5029770;28;20186;-77
2023/12/23 12:28:16;;;;;;;13.10;2.30;;;;;;;;;;5026700;28;20273;-80
2023/12/23 12:30:43;;;;;;;18.40;3.58;;;;;;;;;;5010957;28;20185;-75
2023/12/23 12:33:09;;;;;;;13.82;2.15;;;;;;;;;;5027300;28;20201;-77
2023/12/23 12:35:35;;;;;;;12.65;1.75;;;;;;;;;;5006460;28;20194;-77
2023/12/23 12:38:01;;;;;;;17.52;4.32;;;;;;;;;;5027315;28;20642;-77
2023/12/23 12:40:26;;;;;;;16.33;1.85;;;;;;;;;;5010916;28;20233;-77
2023/12/23 12:42:54;;;;;;;14.27;3.00;;;;;;;;;;4995440;28;20185;-76
2023/12/23 12:45:23;;;;;;;14.60;2.40;;;;;;;;;;5009191;28;20555;-78
2023/12/23 12:47:50;;;;;;;18.73;2.90;;;;;;;;;;5010443;28;20273;-78
2023/12/23 12:50:18;;;;;;;14.63;2.40;;;;;;;;;;5022176;28;20246;-78
2023/12/23 12:52:45;;;;;;;15.30;2.20;;;;;;;;;;5013947;28;20567;-78
2023/12/23 12:55:11;;;;;;;16.55;2.33;;;;;;;;;;5004010;28;20624;-79
2023/12/23 12:57:37;;;;;;;16.23;2.03;;;;;;;;;;5031543;28;20561;-79
2023/12/23 13:00:07;;;;;;;12.05;2.40;;;;;;;;;;4995299;28;20229;-77
2023/12/23 13:02:33;;;;;;;10.50;1.80;;;;;;;;;;5023441;28;20591;-78
2023/12/23 13:04:59;;;;;;;13.98;1.80;;;;;;;;;;5028166;28;20194;-79
2023/12/23 13:07:24;;;;;;;10.52;1.77;;;;;;;;;;5015284;28;20194;-78
2023/12/23 13:09:49;;;;;;;11.85;2.13;;;;;;;;;;5009381;28;20204;-77
2023/12/23 13:12:15;;;;;;;9.45;1.92;;;;;;;;;;5023885;28;20206;-78
2023/12/23 13:14:41;;;;;;;16.45;2.00;;;;;;;;;;5027602;28;20273;-76
2023/12/23 13:17:07;;;;;;;10.25;1.88;;;;;;;;;;5028902;28;20190;-78
2023/12/23 13:19:32;;;;;;;11.05;1.92;;;;;;;;;;5011359;28;20230;-76
2023/12/23 13:21:58;;;;;;;10.43;1.80;;;;;;;;;;5025141;28;20210;-77
2023/12/23 13:24:24;;;;;;;10.55;1.95;;;;;;;;;;5015581;28;20224;-77
2023/12/23 13:26:49;;;;;;;10.10;2.00;;;;;;;;;;5011926;28;20252;-78
2023/12/23 13:29:16;;;;;;;13.35;2.15;;;;;;;;;;5014742;28;20608;-79
2023/12/23 13:31:42;;;;;;;10.48;2.78;;;;;;;;;;4999788;28;20265;-78
2023/12/23 13:34:07;;;;;;;7.55;2.88;;;;;;;;;;5017120;28;20261;-78
2023/12/23 13:36:33;;;;;;;13.55;2.15;;;;;;;;;;5006114;28;20226;-78
2023/12/23 13:39:05;;;;;;;14.88;2.03;;;;;;;;;;5033452;28;20627;-78
2023/12/23 13:41:31;;;;;;;12.75;2.15;;;;;;;;;;5013157;28;20541;-75
2023/12/23 13:43:56;;;;;;;8.75;2.17;;;;;;;;;;5019251;28;20205;-78
2023/12/23 13:46:22;;;;;;;11.23;1.88;;;;;;;;;;5023534;28;20265;-78
2023/12/23 13:48:47;;;;;;;8.98;1.98;;;;;;;;;;4985136;28;20197;-78
2023/12/23 13:51:13;;;;;;;9.25;1.85;;;;;;;;;;4997772;28;20182;-76
2023/12/23 13:53:39;;;;;;;10.20;1.40;;;;;;;;;;5017665;28;20549;-76
2023/12/23 13:56:08;;;;;;;13.10;2.45;;;;;;;;;;5022094;28;20185;-76
2023/12/23 13:58:34;;;;;;;8.98;1.73;;;;;;;;;;5016584;28;20348;-78
2023/12/23 14:00:59;;;;;;;12.93;1.85;;;;;;;;;;5017012;28;20198;-76
2023/12/23 14:03:25;;;;;;;10.10;1.83;;;;;;;;;;5031363;28;20190;-77
2023/12/23 14:05:50;;;;;;;10.48;1.80;;;;;;;;;;5030942;28;20194;-77
2023/12/23 14:08:16;;;;;;;10.98;2.35;;;;;;;;;;5030915;28;20603;-77
2023/12/23 14:10:44;;;;;;;7.70;2.33;;;;;;;;;;5030126;28;20204;-77
2023/12/23 14:13:09;;;;;;;9.98;1.80;;;;;;;;;;5018516;28;20507;-77
2023/12/23 14:15:35;;;;;;;11.05;1.40;;;;;;;;;;4984583;28;20231;-77
2023/12/23 14:18:00;;;;;;;9.20;1.70;;;;;;;;;;4989267;28;20294;-78
2023/12/23 14:20:26;;;;;;;15.23;2.00;;;;;;;;;;5001097;28;20234;-77
2023/12/23 14:22:52;;;;;;;8.70;1.75;;;;;;;;;;5009699;28;20270;-77
2023/12/23 14:25:18;;;;;;;7.10;1.73;;;;;;;;;;4993100;28;20187;-77
2023/12/23 14:27:43;;;;;;;8.15;1.63;;;;;;;;;;5021692;28;20190;-78